Time;durP1;ratioP1;P1;durP2;ratioP2;P2;SDS_P1;SDS_P2;PMS_P1;PMS_P2;Temp;Humidity;BMP_temperature;BMP_pressure;BME280_temperature;BME280_humidity;BME280_pressure;Samples;Min_cycle;Max_cycle;Signal;HPM_P1;HPM_P2
2022/07/01 00:03:51;;;;;;;1.07;0.63;;;13.90;99.90;;;;;;20753151;28;20113;-85
2022/07/01 00:13:52;;;;;;;0.88;0.57;;;13.80;99.90;;;;;;20756559;28;20056;-83
2022/07/01 00:23:53;;;;;;;2.10;0.63;;;13.90;99.90;;;;;;20762559;28;20105;-82
2022/07/01 00:33:53;;;;;;;3.13;0.60;;;14.00;99.90;;;;;;20761166;28;20045;-83
2022/07/01 00:43:55;;;;;;;0.73;0.53;;;14.10;99.90;;;;;;20745278;28;20038;-84
2022/07/01 00:53:58;;;;;;;2.87;0.73;;;13.80;99.90;;;;;;20758767;28;20454;-83
2022/07/01 01:03:59;;;;;;;0.77;0.60;;;13.80;99.90;;;;;;20739403;28;20384;-83
2022/07/01 01:13:59;;;;;;;1.17;0.60;;;13.70;99.90;;;;;;20759264;28;20038;-84
2022/07/01 01:24:00;;;;;;;1.70;0.50;;;13.80;99.90;;;;;;20741963;28;20029;-82
2022/07/01 01:34:01;;;;;;;0.57;0.40;;;13.80;99.90;;;;;;20759649;28;20073;-84
2022/07/01 01:44:02;;;;;;;0.90;0.30;;;13.80;99.90;;;;;;20757101;28;20068;-83
2022/07/01 01:54:04;;;;;;;0.73;0.43;;;13.80;99.90;;;;;;20740233;28;20041;-82
2022/07/01 02:04:04;;;;;;;1.15;0.30;;;13.80;99.90;;;;;;20783216;23;20559;-77
2022/07/01 02:14:05;;;;;;;0.67;0.47;;;13.90;99.90;;;;;;20824932;28;20031;-77
2022/07/01 02:24:06;;;;;;;2.07;0.70;;;13.80;99.90;;;;;;20822890;28;20052;-77
2022/07/01 02:34:07;;;;;;;2.00;0.60;;;13.60;99.90;;;;;;20824458;28;20030;-77
2022/07/01 02:44:08;;;;;;;1.80;0.70;;;13.40;99.90;;;;;;20825853;28;20038;-77
2022/07/01 02:54:09;;;;;;;1.23;0.77;;;13.20;99.90;;;;;;20824050;28;20523;-77
2022/07/01 03:04:09;;;;;;;9.90;1.00;;;13.10;99.90;;;;;;20821541;28;20037;-77
2022/07/01 03:14:10;;;;;;;1.53;0.70;;;13.00;99.90;;;;;;20822909;28;20026;-76
2022/07/01 03:24:11;;;;;;;4.03;0.97;;;12.90;99.90;;;;;;20821094;28;20033;-77
2022/07/01 03:34:12;;;;;;;1.60;1.37;;;12.90;99.90;;;;;;20836301;28;20061;-77
2022/07/01 03:44:13;;;;;;;1.80;1.10;;;12.80;99.90;;;;;;20838484;28;20132;-78
2022/07/01 04:04:34;;;;;;;2.63;1.00;;;12.80;99.90;;;;;;20834846;28;20520;-77
2022/07/01 04:14:36;;;;;;;2.88;1.00;;;12.80;99.90;;;;;;20835431;28;20029;-78
2022/07/01 04:24:37;;;;;;;2.25;1.60;;;12.80;99.90;;;;;;20832365;28;20508;-76
2022/07/01 04:34:38;;;;;;;1.90;1.40;;;12.80;99.90;;;;;;20830646;28;20033;-76
2022/07/01 04:44:38;;;;;;;3.37;1.60;;;12.80;99.90;;;;;;20768706;28;20041;-77
2022/07/01 04:54:39;;;;;;;4.27;2.70;;;12.90;99.90;;;;;;20749762;28;20502;-77
2022/07/01 05:04:41;;;;;;;1.10;0.90;;;12.90;99.90;;;;;;20747433;28;20083;-79
2022/07/01 05:14:41;;;;;;;;;;;12.80;99.90;;;;;;20769523;28;20029;-78
2022/07/01 05:24:42;;;;;;;1.20;0.80;;;12.80;99.90;;;;;;20829571;28;19909;-78
2022/07/01 05:34:44;;;;;;;0.83;0.83;;;12.80;99.90;;;;;;20828720;28;20329;-78
2022/07/01 05:44:45;;;;;;;1.10;0.90;;;12.80;99.90;;;;;;20827725;28;20493;-78
2022/07/01 05:54:45;;;;;;;4.07;1.20;;;12.90;99.90;;;;;;20826556;28;20064;-77
2022/07/01 06:04:46;;;;;;;2.60;1.30;;;12.80;99.90;;;;;;20826170;28;20115;-77
2022/07/01 06:14:47;;;;;;;1.40;0.90;;;12.90;99.90;;;;;;20825596;28;20121;-77
2022/07/01 06:24:48;;;;;;;1.37;0.90;;;12.80;99.90;;;;;;20823799;28;20461;-77
2022/07/01 06:34:49;;;;;;;1.17;0.80;;;12.90;99.90;;;;;;20824473;28;20029;-77
2022/07/01 06:44:49;;;;;;;2.93;0.90;;;13.00;99.90;;;;;;20824232;28;20036;-77
2022/07/01 06:54:50;;;;;;;3.50;1.77;;;13.00;99.90;;;;;;20827536;28;20032;-77
2022/07/01 07:04:57;;;;;;;1.83;1.50;;;12.90;99.90;;;;;;20829679;28;20099;-78
2022/07/01 07:14:57;;;;;;;1.58;1.23;;;13.00;99.90;;;;;;20838724;28;20034;-77
2022/07/01 07:24:58;;;;;;;2.07;1.30;;;13.00;99.90;;;;;;20836254;28;20584;-77
2022/07/01 07:34:59;;;;;;;3.40;1.37;;;12.90;99.90;;;;;;20837240;28;20054;-78
2022/07/01 07:45:01;;;;;;;7.43;1.53;;;13.00;99.90;;;;;;20836544;28;20184;-78
2022/07/01 07:55:02;;;;;;;1.95;1.55;;;13.10;99.90;;;;;;20836274;28;20076;-77
2022/07/01 08:05:03;;;;;;;4.93;1.50;;;13.40;99.90;;;;;;20833848;22;20096;-76
2022/07/01 08:15:05;;;;;;;2.13;1.67;;;13.40;99.90;;;;;;20753057;28;20284;-77
2022/07/01 08:25:07;;;;;;;1.50;1.30;;;13.50;99.90;;;;;;20752287;28;20037;-77
2022/07/01 08:35:08;;;;;;;0.90;0.70;;;13.80;99.90;;;;;;20750684;28;20026;-75
2022/07/01 08:45:10;;;;;;;0.70;0.45;;;13.80;99.90;;;;;;20751480;28;20061;-76
2022/07/01 08:55:11;;;;;;;1.50;0.50;;;13.80;99.90;;;;;;20749964;28;20053;-77
2022/07/01 09:05:11;;;;;;;0.33;0.30;;;14.10;99.90;;;;;;20748996;28;20281;-78
2022/07/01 09:15:29;;;;;;;4.77;0.57;;;14.50;99.90;;;;;;20747653;28;20061;-76
2022/07/01 09:25:39;;;;;;;3.95;0.52;;;14.90;99.90;;;;;;20747353;28;20092;-77
2022/07/01 09:35:41;;;;;;;0.90;0.55;;;15.10;99.90;;;;;;20746342;28;20034;-76
2022/07/01 09:45:51;;;;;;;3.50;1.10;;;15.20;99.90;;;;;;20745894;28;20045;-77
2022/07/01 09:55:52;;;;;;;0.63;0.40;;;15.40;99.90;;;;;;20749327;28;20080;-77
2022/07/01 10:06:18;;;;;;;1.27;0.70;;;15.10;99.90;;;;;;20797554;28;20053;-77
2022/07/01 10:16:19;;;;;;;2.85;0.40;;;15.20;99.90;;;;;;20751419;28;20061;-75
2022/07/01 10:26:29;;;;;;;0.40;0.40;;;16.00;99.90;;;;;;20759009;28;20026;-78
2022/07/01 10:36:33;;;;;;;1.77;0.60;;;16.90;99.90;;;;;;20761664;28;20041;-78
2022/07/01 10:46:46;;;;;;;1.38;0.70;;;17.00;99.90;;;;;;20777185;28;20456;-77
2022/07/01 10:56:47;;;;;;;1.08;0.38;;;18.40;99.90;;;;;;20800445;28;20034;-78
2022/07/01 11:06:48;;;;;;;1.47;0.47;;;18.40;99.90;;;;;;20780541;28;20033;-79
2022/07/01 11:16:49;;;;;;;1.07;0.40;;;18.20;99.90;;;;;;20796650;28;20022;-77
2022/07/01 11:26:50;;;;;;;1.57;0.20;;;18.10;99.90;;;;;;20784755;28;20038;-78
2022/07/01 11:47:12;;;;;;;0.47;0.20;;;20.00;99.90;;;;;;20769470;28;20799;-76
2022/07/01 11:57:16;;;;;;;1.40;0.30;;;19.90;99.90;;;;;;20761169;28;20490;-76
2022/07/01 12:07:21;;;;;;;0.57;0.20;;;20.30;99.90;;;;;;20754818;28;20125;-77
2022/07/01 12:17:22;;;;;;;0.20;0.20;;;20.30;99.90;;;;;;20753643;28;20034;-74
2022/07/01 12:27:23;;;;;;;0.45;0.30;;;20.10;99.90;;;;;;20750521;28;20044;-74
2022/07/01 12:37:33;;;;;;;0.27;0.20;;;20.90;99.90;;;;;;20733612;28;20407;-74
2022/07/01 12:47:36;;;;;;;0.40;0.30;;;20.70;99.90;;;;;;20752696;28;20026;-76
2022/07/01 12:57:37;;;;;;;1.45;0.32;;;20.50;99.90;;;;;;20748267;28;20441;-75
2022/07/01 13:07:38;;;;;;;1.50;0.60;;;20.30;99.90;;;;;;20746668;28;20037;-75
2022/07/01 13:17:39;;;;;;;1.40;0.30;;;20.50;99.90;;;;;;20747285;28;20037;-75
2022/07/01 13:27:43;;;;;;;1.87;0.50;;;20.70;99.90;;;;;;20747212;28;20116;-74
2022/07/01 13:37:43;;;;;;;0.35;0.30;;;20.50;99.90;;;;;;20745546;28;20641;-75
2022/07/01 13:47:44;;;;;;;1.63;0.20;;;21.00;99.90;;;;;;20743954;28;20208;-74
2022/07/01 13:57:46;;;;;;;3.80;0.20;;;20.70;99.90;;;;;;20742488;28;20037;-74
2022/07/01 14:07:47;;;;;;;0.85;0.20;;;21.50;99.90;;;;;;20753978;28;20167;-75
2022/07/01 14:17:48;;;;;;;0.27;0.27;;;21.70;99.90;;;;;;20759285;28;20144;-75
2022/07/01 14:27:49;;;;;;;0.10;0.10;;;21.00;99.90;;;;;;20723414;28;20034;-75
2022/07/01 14:37:51;;;;;;;0.98;0.20;;;21.40;99.90;;;;;;20718310;28;20886;-76
2022/07/01 14:47:51;;;;;;;0.67;0.20;;;22.20;99.90;;;;;;20725414;28;20129;-76
2022/07/01 14:57:52;;;;;;;2.13;0.20;;;21.70;99.90;;;;;;20723003;28;20044;-76
2022/07/01 15:07:53;;;;;;;2.83;0.30;;;22.50;99.90;;;;;;20722694;28;20445;-77
2022/07/01 15:17:54;;;;;;;0.30;0.30;;;21.60;99.90;;;;;;20733083;28;20025;-76
2022/07/01 15:27:55;;;;;;;1.27;0.30;;;21.20;99.90;;;;;;20788001;28;20038;-76
2022/07/01 15:37:56;;;;;;;0.60;0.40;;;21.00;99.90;;;;;;20795858;28;20072;-76
2022/07/01 15:48:05;;;;;;;2.73;0.40;;;21.60;99.90;;;;;;20763073;28;20034;-78
2022/07/01 15:58:07;;;;;;;0.47;0.20;;;21.30;99.90;;;;;;20755330;28;20030;-76
2022/07/01 16:08:12;;;;;;;1.88;0.32;;;21.30;99.90;;;;;;20774933;28;20036;-77
2022/07/01 16:18:13;;;;;;;0.75;0.25;;;21.30;99.90;;;;;;20782021;28;20069;-76
2022/07/01 16:28:16;;;;;;;0.93;0.23;;;21.10;99.90;;;;;;20752958;28;20034;-77
2022/07/01 16:38:30;;;;;;;1.33;0.47;;;21.10;99.90;;;;;;20751693;28;20034;-78
2022/07/01 16:48:33;;;;;;;0.95;0.43;;;21.20;99.90;;;;;;20751479;28;20026;-77
2022/07/01 16:58:36;;;;;;;0.75;0.10;;;21.20;99.90;;;;;;20750100;28;20037;-77
2022/07/01 17:08:38;;;;;;;0.45;0.20;;;21.10;99.90;;;;;;20749182;28;20048;-77
2022/07/01 17:18:39;;;;;;;0.25;0.25;;;21.00;99.90;;;;;;20749136;28;20406;-76
2022/07/01 17:28:40;;;;;;;0.57;0.30;;;21.10;99.90;;;;;;20747987;28;20087;-75
2022/07/01 17:38:48;;;;;;;2.70;0.40;;;20.90;99.90;;;;;;20750035;28;20049;-75
2022/07/01 17:48:49;;;;;;;1.30;0.30;;;21.00;99.90;;;;;;20744256;28;20058;-76
2022/07/01 17:58:54;;;;;;;0.37;0.30;;;21.00;99.90;;;;;;20745227;28;20033;-75
2022/07/01 18:08:55;;;;;;;1.75;0.20;;;21.80;99.90;;;;;;20744874;28;20406;-75
2022/07/01 18:19:16;;;;;;;1.48;0.52;;;24.10;99.90;;;;;;20743822;28;20026;-75
2022/07/01 18:29:22;;;;;;;0.40;0.30;;;25.60;99.90;;;;;;20743510;28;20051;-76
2022/07/01 18:39:25;;;;;;;3.25;0.50;;;25.70;99.90;;;;;;20742642;28;20128;-77
2022/07/01 18:49:26;;;;;;;2.50;0.50;;;25.30;99.90;;;;;;20742670;28;20075;-76
2022/07/01 18:59:27;;;;;;;0.57;0.40;;;20.20;99.90;;;;;;20727686;28;20120;-76
2022/07/01 19:09:27;;;;;;;3.13;0.83;;;18.90;99.90;;;;;;20757433;28;20038;-76
2022/07/01 19:19:29;;;;;;;3.40;1.10;;;18.10;99.90;;;;;;20757452;28;20046;-76
2022/07/01 19:29:30;;;;;;;1.85;0.77;;;17.40;99.90;;;;;;20739400;28;20034;-77
2022/07/01 19:39:30;;;;;;;4.53;1.80;;;17.10;99.90;;;;;;20777903;28;20030;-76
2022/07/01 19:49:31;;;;;;;1.50;0.57;;;16.80;99.90;;;;;;20796039;28;20033;-75
2022/07/01 19:59:32;;;;;;;3.47;1.17;;;15.80;99.90;;;;;;20791391;28;20121;-75
2022/07/01 20:09:33;;;;;;;1.73;0.90;;;15.90;99.90;;;;;;20752167;28;20462;-76
2022/07/01 20:19:34;;;;;;;4.43;1.03;;;15.40;99.90;;;;;;20751589;28;20048;-76
2022/07/01 20:29:35;;;;;;;1.80;0.87;;;15.00;99.90;;;;;;20732745;28;20120;-77
2022/07/01 20:39:36;;;;;;;4.17;0.90;;;15.10;99.90;;;;;;20733655;28;20533;-77
2022/07/01 20:49:37;;;;;;;1.85;0.65;;;14.90;99.90;;;;;;20734613;28;20498;-77
2022/07/01 20:59:38;;;;;;;1.20;0.50;;;14.90;99.90;;;;;;20720282;28;20061;-75
2022/07/01 21:09:38;;;;;;;3.17;0.70;;;14.90;99.90;;;;;;20667098;28;20507;-76
2022/07/01 21:19:39;;;;;;;0.53;0.40;;;14.90;99.90;;;;;;20666152;28;20164;-76
2022/07/01 21:29:40;;;;;;;1.60;0.60;;;14.80;99.90;;;;;;20666850;28;20562;-75
2022/07/01 21:39:41;;;;;;;1.70;0.40;;;14.70;99.90;;;;;;20768807;28;20545;-75
2022/07/01 21:49:43;;;;;;;4.30;0.80;;;14.40;99.90;;;;;;20786507;28;20540;-76
2022/07/01 21:59:50;;;;;;;6.65;1.08;;;14.20;99.90;;;;;;20797906;28;20041;-76
2022/07/01 22:09:51;;;;;;;0.57;0.57;;;14.30;99.90;;;;;;20782504;28;20072;-75
2022/07/01 22:19:52;;;;;;;3.30;0.73;;;14.10;99.90;;;;;;20782989;28;20030;-74
2022/07/01 22:29:54;;;;;;;6.60;1.00;;;13.50;99.90;;;;;;20771361;28;20062;-74
2022/07/01 22:39:55;;;;;;;1.52;0.70;;;12.90;99.90;;;;;;20742964;28;20037;-75
2022/07/01 22:50:03;;;;;;;2.03;1.30;;;13.10;99.90;;;;;;20742682;28;20026;-75
2022/07/01 23:00:07;;;;;;;2.75;1.00;;;13.30;99.90;;;;;;20742593;28;20038;-76
2022/07/01 23:10:20;;;;;;;2.70;1.35;;;13.10;99.90;;;;;;20740376;28;20045;-75
2022/07/01 23:20:23;;;;;;;4.63;1.70;;;13.20;99.90;;;;;;20741652;28;20054;-75
2022/07/01 23:30:24;;;;;;;2.72;1.00;;;13.10;99.90;;;;;;20741058;28;20030;-75
2022/07/01 23:40:24;;;;;;;1.80;1.00;;;13.20;99.90;;;;;;20740833;28;20466;-76
2022/07/01 23:50:25;;;;;;;0.93;0.80;;;13.30;99.90;;;;;;20750209;28;20038;-75
